Pagina principale
METAR-TAF:

METAR-TAF

Aeroporti :

Emmen, Svizzera

latitudine: 47-05-32N, longitudine: 8-18-16E, altezza: 426 m

Osservazione

Il bollettino è stato emesso 39 minuti fa, alle 13:50 UTC
Vento 1 kt da direzioni variabili
Temperature 1°C
Umidità 100%
Pressione 1017 hPa
Visibilità: 2500 m
Cielo coperto ad un'altezza di 200 ft
foschia

METAR: LSME 061350Z VRB01KT 2500 BR OVC002 01/01 Q1017 RMK AMB

Ora: 15:29 (14:29 UTC)


TAF: mancante

Osservazioni e previsioni meteorologiche di più di 4000 aeroporti (messaggi METAR e TAF).

Le stazioni disponibili sono rappresentate dai dischi gialli e rossi sulla carta.

Puntare il mouse per vedere il nome della stazione.

Clicca sopra per visualizzare le osservazioni e previsioni meteorologiche.

Per cambiare la mappa : fare clic sui pulsanti verdi con una croce nera per ingrandire, il pulsante verde con un trattino per diminuire, o sulla freccia verde per le mappe adiacenti.


METAR-TAF: